Time;durP1;ratioP1;P1;durP2;ratioP2;P2;SDS_P1;SDS_P2;PMS_P1;PMS_P2;Temp;Humidity;BMP_temperature;BMP_pressure;BME280_temperature;BME280_humidity;BME280_pressure;Samples;Min_cycle;Max_cycle;Signal;HPM_P1;HPM_P2
2024/03/16 00:01:26;;;;;;;;;;;;;;;23.32;39.00;101152.00;4100289;28;19977;-58
2024/03/16 00:03:28;;;;;;;;;;;;;;;23.29;38.79;101146.88;4099385;29;20404;-58
2024/03/16 00:05:30;;;;;;;;;;;;;;;23.28;39.18;101154.09;4100556;28;19968;-57
2024/03/16 00:07:32;;;;;;;;;;;;;;;23.29;39.14;101154.91;4100369;28;19923;-58
2024/03/16 00:09:33;;;;;;;;;;;;;;;23.28;39.05;101164.81;4100499;28;19922;-57
2024/03/16 00:11:35;;;;;;;;;;;;;;;23.28;39.33;101159.44;4100332;28;19923;-58
2024/03/16 00:13:37;;;;;;;;;;;;;;;23.27;38.91;101157.75;4100535;28;19978;-58
2024/03/16 00:15:39;;;;;;;;;;;;;;;23.27;38.96;101168.47;4100100;28;20321;-58
2024/03/16 00:17:41;;;;;;;;;;;;;;;23.27;38.85;101159.59;4100444;28;19930;-59
2024/03/16 00:19:42;;;;;;;;;;;;;;;23.28;38.84;101172.00;4100455;28;19922;-58
2024/03/16 00:21:43;;;;;;;;;;;;;;;23.29;38.89;101169.22;4100488;28;20008;-58
2024/03/16 00:23:45;;;;;;;;;;;;;;;23.32;38.89;101164.53;4100344;28;19923;-58
2024/03/16 00:25:47;;;;;;;;;;;;;;;23.30;38.86;101167.38;4100179;28;20325;-58
2024/03/16 00:27:52;;;;;;;;;;;;;;;23.27;39.16;101179.22;4100426;28;20313;-59
2024/03/16 00:29:55;;;;;;;;;;;;;;;23.26;39.18;101179.34;4099914;28;19965;-59
2024/03/16 00:31:56;;;;;;;;;;;;;;;23.25;39.20;101181.16;4100231;28;19922;-59
2024/03/16 00:33:58;;;;;;;;;;;;;;;23.23;38.70;101175.09;4100054;28;19922;-59
2024/03/16 00:36:00;;;;;;;;;;;;;;;23.23;38.84;101177.78;4100047;28;20397;-59
2024/03/16 00:38:01;;;;;;;;;;;;;;;23.23;39.03;101193.00;4100040;28;19969;-59
2024/03/16 00:40:03;;;;;;;;;;;;;;;23.23;39.12;101184.94;4099859;28;19922;-59
2024/03/16 00:42:04;;;;;;;;;;;;;;;23.24;39.02;101183.97;4099940;28;19926;-59
2024/03/16 00:44:07;;;;;;;;;;;;;;;23.22;39.07;101192.16;4099491;28;19922;-59
2024/03/16 00:46:09;;;;;;;;;;;;;;;23.22;38.84;101185.91;4099858;28;19926;-59
2024/03/16 00:48:12;;;;;;;;;;;;;;;23.23;38.68;101195.69;4099874;28;19926;-59
2024/03/16 00:50:14;;;;;;;;;;;;;;;23.23;38.84;101199.25;4099866;28;19922;-59
2024/03/16 00:52:16;;;;;;;;;;;;;;;23.25;38.59;101193.75;4099938;28;20440;-59
2024/03/16 00:54:18;;;;;;;;;;;;;;;23.25;38.59;101193.75;4099753;28;20329;-58
2024/03/16 00:56:20;;;;;;;;;;;;;;;23.24;38.99;101203.59;4098691;28;20369;-59
2024/03/16 00:58:22;;;;;;;;;;;;;;;23.23;38.86;101204.59;4099648;28;19933;-58
2024/03/16 01:00:24;;;;;;;;;;;;;;;23.22;38.71;101212.75;4099651;28;20029;-59
2024/03/16 01:02:25;;;;;;;;;;;;;;;23.18;38.90;101204.09;4099992;28;19922;-59
2024/03/16 01:04:27;;;;;;;;;;;;;;;23.19;38.67;101216.53;4099844;28;19961;-58
2024/03/16 01:06:28;;;;;;;;;;;;;;;23.18;38.73;101220.19;4099692;28;20309;-58
2024/03/16 01:08:30;;;;;;;;;;;;;;;23.16;38.63;101215.91;4099854;28;20025;-59
2024/03/16 01:10:31;;;;;;;;;;;;;;;23.18;38.66;101219.38;4098729;29;19991;-58
2024/03/16 01:12:33;;;;;;;;;;;;;;;23.19;38.57;101223.75;4098208;29;20500;-58
2024/03/16 01:14:35;;;;;;;;;;;;;;;23.21;38.73;101219.97;4099619;28;19978;-58
2024/03/16 01:16:36;;;;;;;;;;;;;;;23.21;38.59;101225.34;4099708;29;20046;-58
2024/03/16 01:18:39;;;;;;;;;;;;;;;23.20;38.83;101220.94;4099543;28;19923;-59
2024/03/16 01:20:44;;;;;;;;;;;;;;;23.21;38.52;101230.69;4099756;28;19923;-59
2024/03/16 01:22:45;;;;;;;;;;;;;;;23.21;38.82;101230.69;4099602;28;19962;-59
2024/03/16 01:24:49;;;;;;;;;;;;;;;23.20;38.47;101229.00;4099719;28;19922;-59
2024/03/16 01:26:51;;;;;;;;;;;;;;;23.18;38.43;101241.66;4099306;28;19931;-59
2024/03/16 01:28:52;;;;;;;;;;;;;;;23.16;38.53;101234.69;4099468;28;19954;-59
2024/03/16 01:30:54;;;;;;;;;;;;;;;23.13;38.38;101235.78;4099473;28;20378;-58
2024/03/16 01:32:55;;;;;;;;;;;;;;;23.11;38.51;101238.63;4099637;28;20231;-59
2024/03/16 01:34:57;;;;;;;;;;;;;;;23.08;38.44;101246.91;4099417;28;20024;-59
2024/03/16 01:36:59;;;;;;;;;;;;;;;23.07;38.39;101250.56;4099436;29;20063;-59
2024/03/16 01:39:00;;;;;;;;;;;;;;;23.11;38.40;101249.34;4099504;28;19969;-59
2024/03/16 01:41:02;;;;;;;;;;;;;;;23.11;38.15;101254.72;4099161;28;19953;-59
2024/03/16 01:43:04;;;;;;;;;;;;;;;23.13;38.53;101251.91;4099617;28;19926;-59
2024/03/16 01:45:06;;;;;;;;;;;;;;;23.11;38.45;101252.03;4099652;28;19946;-58
2024/03/16 01:47:09;;;;;;;;;;;;;;;23.12;38.17;101256.41;4099365;28;20385;-58
2024/03/16 01:49:11;;;;;;;;;;;;;;;23.16;38.48;101253.47;4099542;28;20389;-59
2024/03/16 01:51:13;;;;;;;;;;;;;;;23.13;38.14;101254.59;4099143;28;19922;-59
2024/03/16 01:53:14;;;;;;;;;;;;;;;23.13;38.44;101259.94;4099496;28;20009;-58
2024/03/16 01:55:16;;;;;;;;;;;;;;;23.11;38.49;101260.06;4099124;28;19954;-57
2024/03/16 01:57:18;;;;;;;;;;;;;;;23.09;38.44;101264.69;4098762;28;19961;-57
2024/03/16 01:59:19;;;;;;;;;;;;;;;23.09;38.40;101267.38;4099173;28;19926;-57
2024/03/16 02:01:21;;;;;;;;;;;;;;;23.09;38.41;101263.88;4099301;28;19983;-56
2024/03/16 02:03:23;;;;;;;;;;;;;;;23.07;38.14;101263.13;4099314;28;19926;-56
2024/03/16 02:05:31;;;;;;;;;;;;;;;23.08;38.47;101265.69;4099282;28;20374;-57
2024/03/16 02:07:38;;;;;;;;;;;;;;;23.09;38.34;101261.19;4101138;28;20051;-58
2024/03/16 02:09:40;;;;;;;;;;;;;;;23.08;38.27;101268.34;4102430;28;19933;-57
2024/03/16 02:11:41;;;;;;;;;;;;;;;23.08;38.28;101265.69;4101881;28;20302;-57
2024/03/16 02:13:43;;;;;;;;;;;;;;;23.08;38.31;101264.84;4102256;28;19922;-57
2024/03/16 02:15:44;;;;;;;;;;;;;;;23.09;38.46;101274.59;4102388;28;19922;-57
2024/03/16 02:17:50;;;;;;;;;;;;;;;23.09;38.08;101264.69;4102130;28;19930;-57
2024/03/16 02:19:52;;;;;;;;;;;;;;;23.11;38.40;101275.31;4102433;28;19922;-57
2024/03/16 02:21:54;;;;;;;;;;;;;;;23.09;38.08;101270.06;4102328;28;19968;-57
2024/03/16 02:23:55;;;;;;;;;;;;;;;23.08;38.62;101279.09;4102340;28;19954;-57
2024/03/16 02:25:58;;;;;;;;;;;;;;;23.05;38.42;101281.16;4101805;28;19957;-57
2024/03/16 02:27:59;;;;;;;;;;;;;;;23.04;38.23;101277.63;4102131;28;19942;-57
2024/03/16 02:30:01;;;;;;;;;;;;;;;23.06;38.58;101286.44;4102146;28;19968;-57
2024/03/16 02:32:07;;;;;;;;;;;;;;;23.04;38.17;101284.81;4102048;28;20013;-57
2024/03/16 02:34:08;;;;;;;;;;;;;;;23.03;38.48;101286.66;4101897;28;19922;-57
2024/03/16 02:36:10;;;;;;;;;;;;;;;23.04;38.37;101288.38;4101973;28;20384;-57
2024/03/16 02:38:17;;;;;;;;;;;;;;;23.06;38.22;101294.47;4101902;28;19922;-58
2024/03/16 02:40:18;;;;;;;;;;;;;;;23.05;38.45;101306.19;4101507;28;19923;-57
2024/03/16 02:42:20;;;;;;;;;;;;;;;23.07;38.53;101304.22;4101850;28;20017;-58
2024/03/16 02:44:25;;;;;;;;;;;;;;;23.09;38.24;101306.78;4101857;28;19934;-58
2024/03/16 02:46:26;;;;;;;;;;;;;;;23.07;38.47;101309.56;4101932;28;20001;-58
2024/03/16 02:48:28;;;;;;;;;;;;;;;23.08;38.15;101300.56;4102076;28;19923;-58
2024/03/16 02:50:29;;;;;;;;;;;;;;;23.08;38.48;101311.28;4101398;28;19969;-58
2024/03/16 02:52:31;;;;;;;;;;;;;;;23.07;38.56;101311.41;4101720;28;20034;-58
2024/03/16 02:54:33;;;;;;;;;;;;;;;23.04;38.40;101311.66;4101346;28;19923;-59
2024/03/16 02:56:35;;;;;;;;;;;;;;;23.04;38.22;101306.28;4101434;28;19965;-58
2024/03/16 02:58:36;;;;;;;;;;;;;;;23.03;38.13;101304.59;4101659;28;19957;-58
2024/03/16 03:00:38;;;;;;;;;;;;;;;23.02;38.38;101314.47;4101640;28;19929;-58
2024/03/16 03:02:39;;;;;;;;;;;;;;;23.02;38.19;101325.19;4099824;28;20440;-59
2024/03/16 03:04:41;;;;;;;;;;;;;;;23.04;38.62;101325.06;4101137;28;19982;-58
2024/03/16 03:06:42;;;;;;;;;;;;;;;23.04;38.21;101325.06;4101687;28;19926;-58
2024/03/16 03:08:45;;;;;;;;;;;;;;;23.03;38.16;101326.06;4101163;28;20472;-58
2024/03/16 03:10:46;;;;;;;;;;;;;;;23.04;38.27;101325.94;4101456;28;20041;-58
2024/03/16 03:12:48;;;;;;;;;;;;;;;23.06;38.21;101329.34;4101365;28;20290;-59
2024/03/16 03:14:50;;;;;;;;;;;;;;;23.06;38.23;101329.34;4101401;28;19930;-58
2024/03/16 03:16:52;;;;;;;;;;;;;;;23.08;38.38;101329.22;4101249;28;20369;-58
2024/03/16 03:18:55;;;;;;;;;;;;;;;23.07;38.31;101325.66;4100317;28;19922;-58
2024/03/16 03:20:57;;;;;;;;;;;;;;;23.06;38.08;101326.66;4101397;28;19922;-58
2024/03/16 03:22:59;;;;;;;;;;;;;;;23.06;38.16;101321.31;4100945;28;20470;-58
2024/03/16 03:25:01;;;;;;;;;;;;;;;23.04;38.27;101328.63;4101478;29;19922;-59
2024/03/16 03:27:02;;;;;;;;;;;;;;;23.03;38.23;101334.09;4100244;29;20021;-58
2024/03/16 03:29:04;;;;;;;;;;;;;;;23.02;38.38;101343.97;4101002;28;19922;-58
2024/03/16 03:31:08;;;;;;;;;;;;;;;23.01;38.46;101339.56;4101257;28;20002;-59
2024/03/16 03:33:10;;;;;;;;;;;;;;;23.00;38.54;101342.38;4101084;28;20001;-59
2024/03/16 03:35:11;;;;;;;;;;;;;;;23.00;38.24;101351.28;4101128;28;20401;-58
2024/03/16 03:37:13;;;;;;;;;;;;;;;23.02;38.22;101345.81;4100940;28;19945;-59
2024/03/16 03:39:15;;;;;;;;;;;;;;;23.02;38.19;101352.00;4101156;28;20005;-58
2024/03/16 03:41:18;;;;;;;;;;;;;;;23.04;38.48;101358.13;4101316;28;19929;-58
2024/03/16 03:43:22;;;;;;;;;;;;;;;23.05;38.22;101362.53;4101223;28;19977;-58
2024/03/16 03:45:49;;;;;;;;;;;;;;;23.05;38.18;101369.69;4100779;28;20412;-58
2024/03/16 03:48:02;;;;;;;;;;;;;;;23.05;38.18;101375.06;4101066;28;19928;-57
2024/03/16 03:50:04;;;;;;;;;;;;;;;23.02;38.03;101373.47;4100503;28;19977;-58
2024/03/16 03:52:06;;;;;;;;;;;;;;;23.02;37.98;101368.13;4100596;28;20433;-58
2024/03/16 03:54:08;;;;;;;;;;;;;;;23.03;38.18;101371.66;4100933;28;20005;-58
2024/03/16 03:56:09;;;;;;;;;;;;;;;23.01;37.94;101371.75;4100498;28;19969;-58
2024/03/16 03:58:11;;;;;;;;;;;;;;;23.00;38.43;101379.94;4100906;29;19985;-58
2024/03/16 04:00:16;;;;;;;;;;;;;;;22.98;38.37;101386.28;4100729;28;20021;-58
2024/03/16 04:02:17;;;;;;;;;;;;;;;22.98;38.43;101378.22;4100662;29;19922;-57
2024/03/16 04:04:19;;;;;;;;;;;;;;;23.00;38.06;101388.81;4100719;28;20005;-57
2024/03/16 04:06:23;;;;;;;;;;;;;;;23.02;38.31;101394.94;4100492;29;20485;-58
2024/03/16 04:08:25;;;;;;;;;;;;;;;23.01;38.25;101382.50;4100622;29;19930;-58
2024/03/16 04:10:27;;;;;;;;;;;;;;;23.03;38.31;101401.19;4100700;28;19922;-57
2024/03/16 04:12:28;;;;;;;;;;;;;;;23.05;38.17;101399.22;4100519;28;19965;-58
2024/03/16 04:14:30;;;;;;;;;;;;;;;23.04;37.96;101397.50;4100448;29;19922;-57
2024/03/16 04:16:31;;;;;;;;;;;;;;;23.02;38.01;101404.81;4100317;29;19922;-57
2024/03/16 04:18:33;;;;;;;;;;;;;;;23.01;37.88;101406.63;4100432;29;19958;-57
2024/03/16 04:20:34;;;;;;;;;;;;;;;23.02;37.92;101405.66;4100128;28;19926;-57
2024/03/16 04:22:36;;;;;;;;;;;;;;;23.00;37.88;101410.28;4100533;29;19991;-57
2024/03/16 04:24:38;;;;;;;;;;;;;;;23.00;37.73;101404.91;4100469;28;19922;-57
2024/03/16 04:26:39;;;;;;;;;;;;;;;22.98;38.21;101407.72;4100322;29;19956;-58
2024/03/16 04:28:41;;;;;;;;;;;;;;;22.96;37.91;101411.50;4100279;29;19976;-57
2024/03/16 04:30:42;;;;;;;;;;;;;;;22.95;38.19;101423.22;4100221;28;19945;-56
2024/03/16 04:32:44;;;;;;;;;;;;;;;22.95;37.89;101416.03;4100196;29;19923;-56
2024/03/16 04:34:46;;;;;;;;;;;;;;;22.97;38.02;101414.06;4100139;28;20433;-56
2024/03/16 04:36:47;;;;;;;;;;;;;;;22.99;38.23;101419.34;4099960;29;19922;-56
2024/03/16 04:38:49;;;;;;;;;;;;;;;23.00;38.22;101421.03;4100045;29;20408;-57
2024/03/16 04:40:50;;;;;;;;;;;;;;;23.00;38.00;101420.19;4100254;29;19923;-57
2024/03/16 04:42:52;;;;;;;;;;;;;;;23.00;38.23;101431.75;4099938;29;19973;-57
2024/03/16 04:44:53;;;;;;;;;;;;;;;23.00;37.88;101433.59;4099984;29;19932;-57
2024/03/16 04:46:55;;;;;;;;;;;;;;;23.00;37.96;101437.13;4099875;29;20389;-56
2024/03/16 04:48:56;;;;;;;;;;;;;;;23.00;37.79;101439.81;4100067;29;19953;-58
2024/03/16 04:50:58;;;;;;;;;;;;;;;22.98;37.92;101436.41;4099600;28;19961;-58
2024/03/16 04:53:00;;;;;;;;;;;;;;;22.97;37.97;101443.56;4099775;29;19922;-58
2024/03/16 04:55:03;;;;;;;;;;;;;;;22.96;38.19;101449.06;4100067;28;20400;-58
2024/03/16 04:57:05;;;;;;;;;;;;;;;22.96;37.99;101457.13;4099676;28;19929;-57
2024/03/16 04:59:06;;;;;;;;;;;;;;;22.95;37.79;101458.09;4098863;29;19922;-58
2024/03/16 05:01:09;;;;;;;;;;;;;;;22.94;38.18;101451.88;4099692;28;19922;-57
2024/03/16 05:03:17;;;;;;;;;;;;;;;22.94;37.92;101451.00;4099920;28;19922;-58
2024/03/16 05:05:18;;;;;;;;;;;;;;;22.96;37.81;101460.63;4099422;28;19922;-57
2024/03/16 05:07:20;;;;;;;;;;;;;;;22.95;37.89;101452.72;4099784;28;19960;-57
2024/03/16 05:09:22;;;;;;;;;;;;;;;22.96;38.02;101457.97;4099670;28;19929;-57
2024/03/16 05:11:26;;;;;;;;;;;;;;;22.98;37.74;101460.53;4099698;28;19949;-58
2024/03/16 05:13:28;;;;;;;;;;;;;;;22.98;37.76;101457.88;4099676;28;20397;-57
2024/03/16 05:15:32;;;;;;;;;;;;;;;22.99;37.81;101462.25;4099730;28;19962;-58
2024/03/16 05:17:35;;;;;;;;;;;;;;;22.97;38.01;101466.88;4099745;28;20452;-57
2024/03/16 05:19:37;;;;;;;;;;;;;;;22.97;37.61;101473.09;4099154;28;19922;-58
2024/03/16 05:21:38;;;;;;;;;;;;;;;22.95;37.77;101487.59;4099520;28;19958;-58
2024/03/16 05:23:41;;;;;;;;;;;;;;;22.94;38.10;101493.91;4099674;28;20332;-58
2024/03/16 05:25:46;;;;;;;;;;;;;;;22.91;37.93;101488.81;4099546;28;19922;-59
2024/03/16 05:27:47;;;;;;;;;;;;;;;22.90;37.93;101495.13;4099598;28;19923;-57
2024/03/16 05:29:49;;;;;;;;;;;;;;;22.91;37.91;101503.06;4099721;28;19922;-60
2024/03/16 05:31:57;;;;;;;;;;;;;;;22.92;38.15;101502.09;4099663;28;19922;-59
2024/03/16 05:34:00;;;;;;;;;;;;;;;22.93;37.84;101513.66;4099187;28;20357;-60
2024/03/16 05:36:02;;;;;;;;;;;;;;;22.94;37.82;101516.25;4099592;28;20013;-59
2024/03/16 05:38:04;;;;;;;;;;;;;;;22.96;37.96;101502.72;4099732;28;19926;-58
2024/03/16 05:40:06;;;;;;;;;;;;;;;22.96;37.87;101500.03;4099330;28;20345;-57
2024/03/16 05:42:07;;;;;;;;;;;;;;;22.97;37.74;101512.47;4100825;28;19950;-59
2024/03/16 05:44:10;;;;;;;;;;;;;;;22.96;38.06;101503.56;4117603;28;20360;-58
2024/03/16 05:46:11;;;;;;;;;;;;;;;22.94;37.95;101505.53;4102535;28;19922;-58
2024/03/16 05:48:13;;;;;;;;;;;;;;;22.94;37.82;101502.84;4102561;28;19991;-58
2024/03/16 05:50:15;;;;;;;;;;;;;;;22.92;37.89;101512.81;4102420;28;19926;-58
2024/03/16 05:52:16;;;;;;;;;;;;;;;22.93;37.91;101510.97;4102663;28;19922;-58
2024/03/16 05:54:18;;;;;;;;;;;;;;;22.92;38.02;101511.97;4102691;28;20397;-58
2024/03/16 05:56:19;;;;;;;;;;;;;;;22.91;37.85;101519.16;4102352;28;19970;-57
2024/03/16 05:58:21;;;;;;;;;;;;;;;22.90;37.86;101513.91;4102574;29;19923;-58
2024/03/16 06:00:23;;;;;;;;;;;;;;;22.91;37.99;101521.00;4102266;29;20013;-57
2024/03/16 06:02:25;;;;;;;;;;;;;;;22.91;38.16;101529.88;4102309;28;19922;-58
2024/03/16 06:04:26;;;;;;;;;;;;;;;22.93;37.96;101529.75;4102361;29;20017;-58
2024/03/16 06:06:28;;;;;;;;;;;;;;;22.94;37.84;101535.03;4102563;28;20373;-58
2024/03/16 06:08:31;;;;;;;;;;;;;;;22.92;38.03;101541.50;4102511;28;19973;-59
2024/03/16 06:10:33;;;;;;;;;;;;;;;22.92;38.08;101539.66;4102481;29;19922;-57
2024/03/16 06:12:35;;;;;;;;;;;;;;;22.93;38.08;101551.22;4101140;29;20452;-58
2024/03/16 06:14:36;;;;;;;;;;;;;;;22.92;38.13;101547.69;4102241;29;19953;-58
2024/03/16 06:16:40;;;;;;;;;;;;;;;22.89;38.06;101557.78;4100572;29;19933;-56
2024/03/16 06:18:47;;;;;;;;;;;;;;;22.90;37.85;101559.50;4102373;28;19926;-57
2024/03/16 06:20:49;;;;;;;;;;;;;;;22.90;37.99;101559.50;4102222;29;20007;-57
2024/03/16 06:22:50;;;;;;;;;;;;;;;22.89;37.86;101569.41;4102176;28;19933;-57
2024/03/16 06:24:52;;;;;;;;;;;;;;;22.88;37.81;101572.19;4102194;29;19922;-57
2024/03/16 06:27:00;;;;;;;;;;;;;;;22.88;37.64;101574.84;4102115;29;19926;-57
2024/03/16 06:29:05;;;;;;;;;;;;;;;22.89;37.98;101579.25;4101921;29;20021;-57
2024/03/16 06:31:09;;;;;;;;;;;;;;;22.90;37.79;101586.34;4101696;29;19928;-58
2024/03/16 06:33:20;;;;;;;;;;;;;;;22.92;38.08;101592.44;4102057;28;19923;-57
2024/03/16 06:35:22;;;;;;;;;;;;;;;22.92;38.11;101595.97;4101968;29;19926;-58
2024/03/16 06:37:23;;;;;;;;;;;;;;;22.95;38.06;101603.81;4101906;29;19957;-57
2024/03/16 06:39:25;;;;;;;;;;;;;;;22.95;37.99;101598.44;4101867;29;20001;-57
2024/03/16 06:41:27;;;;;;;;;;;;;;;22.94;37.84;101602.09;4101821;28;19926;-57
2024/03/16 06:43:28;;;;;;;;;;;;;;;22.95;38.07;101606.50;4101701;28;20014;-57
2024/03/16 06:45:30;;;;;;;;;;;;;;;22.94;37.91;101618.19;4101922;29;20445;-58
2024/03/16 06:47:32;;;;;;;;;;;;;;;22.94;37.84;101607.47;4101790;29;20014;-58
2024/03/16 06:49:33;;;;;;;;;;;;;;;22.92;38.17;101620.13;4101773;28;19978;-57
2024/03/16 06:51:35;;;;;;;;;;;;;;;22.90;37.97;101622.06;4101940;28;19928;-56
2024/03/16 06:53:37;;;;;;;;;;;;;;;22.90;38.14;101630.09;4101752;28;19977;-60
2024/03/16 06:55:38;;;;;;;;;;;;;;;22.89;37.97;101625.72;4101362;28;19933;-58
2024/03/16 06:57:40;;;;;;;;;;;;;;;22.91;38.14;101625.59;4101842;28;20350;-58
2024/03/16 06:59:42;;;;;;;;;;;;;;;22.91;38.15;101614.88;4101758;28;19922;-58
2024/03/16 07:01:43;;;;;;;;;;;;;;;22.91;37.84;101618.41;4101534;28;19967;-59
2024/03/16 07:03:45;;;;;;;;;;;;;;;22.92;37.74;101621.97;4101596;28;20381;-58
2024/03/16 07:05:47;;;;;;;;;;;;;;;22.94;37.91;101630.72;4101519;28;19922;-58
2024/03/16 07:07:48;;;;;;;;;;;;;;;22.95;37.94;101627.09;4101577;28;20309;-59
2024/03/16 07:09:50;;;;;;;;;;;;;;;22.95;37.84;101629.75;4101500;28;20301;-58
2024/03/16 07:11:53;;;;;;;;;;;;;;;22.94;37.56;101631.59;4100446;29;19926;-58
2024/03/16 07:13:55;;;;;;;;;;;;;;;22.95;37.65;101630.63;4101295;28;20439;-58
2024/03/16 07:15:56;;;;;;;;;;;;;;;22.93;37.71;101637.94;4100967;28;19953;-58
2024/03/16 07:17:58;;;;;;;;;;;;;;;22.91;37.90;101641.69;4101333;28;19930;-59
2024/03/16 07:19:59;;;;;;;;;;;;;;;22.91;37.96;101642.53;4101251;28;20029;-58
2024/03/16 07:22:01;;;;;;;;;;;;;;;22.90;38.12;101645.34;4101485;28;19936;-58
2024/03/16 07:24:03;;;;;;;;;;;;;;;22.89;38.21;101644.50;4101466;28;20301;-58
2024/03/16 07:26:05;;;;;;;;;;;;;;;22.90;38.08;101653.41;4101375;28;20290;-58
2024/03/16 07:28:11;;;;;;;;;;;;;;;22.93;37.80;101653.16;4101145;28;20372;-59
2024/03/16 07:30:13;;;;;;;;;;;;;;;22.92;37.80;101652.31;4100618;28;20013;-59
2024/03/16 07:32:14;;;;;;;;;;;;;;;22.91;38.15;101655.97;4101015;28;19927;-59
2024/03/16 07:34:16;;;;;;;;;;;;;;;22.95;37.85;101667.31;4101067;28;19929;-59
2024/03/16 07:36:18;;;;;;;;;;;;;;;22.95;37.87;101668.19;4101419;28;19977;-58
2024/03/16 07:38:19;;;;;;;;;;;;;;;22.96;37.63;101667.19;4100800;28;19922;-58
2024/03/16 07:40:21;;;;;;;;;;;;;;;22.96;38.09;101672.56;4100973;28;19971;-58
2024/03/16 07:42:23;;;;;;;;;;;;;;;22.98;37.81;101677.84;4101161;28;20377;-58
2024/03/16 07:44:25;;;;;;;;;;;;;;;22.95;37.84;101683.41;4100575;28;19934;-58
2024/03/16 07:46:26;;;;;;;;;;;;;;;22.96;37.84;101682.44;4100833;28;19973;-58
2024/03/16 07:48:28;;;;;;;;;;;;;;;22.96;37.72;101687.81;4100702;28;19967;-58
2024/03/16 07:50:30;;;;;;;;;;;;;;;22.93;37.80;101688.91;4100762;28;19970;-58
2024/03/16 07:52:32;;;;;;;;;;;;;;;22.92;38.15;101686.34;4100946;28;19923;-60
2024/03/16 07:54:34;;;;;;;;;;;;;;;22.92;37.85;101700.59;4100686;28;20009;-57
2024/03/16 07:56:35;;;;;;;;;;;;;;;22.94;37.88;101697.78;4100519;28;19973;-57
2024/03/16 07:58:40;;;;;;;;;;;;;;;22.94;38.06;101704.03;4100330;29;19922;-58
2024/03/16 08:00:41;;;;;;;;;;;;;;;22.96;37.97;101707.44;4100716;29;20397;-58
2024/03/16 08:02:43;;;;;;;;;;;;;;;22.96;38.02;101718.16;4100752;28;19926;-58
2024/03/16 08:04:44;;;;;;;;;;;;;;;22.98;37.97;101718.09;4100020;28;19926;-58
2024/03/16 08:06:46;;;;;;;;;;;;;;;22.98;37.96;101715.41;4100611;28;19928;-58
2024/03/16 08:08:47;;;;;;;;;;;;;;;22.98;37.89;101720.75;4100784;28;19929;-57
2024/03/16 08:10:50;;;;;;;;;;;;;;;22.98;37.88;101723.44;4100606;28;19926;-57
2024/03/16 08:12:51;;;;;;;;;;;;;;;22.97;37.72;101727.09;4100099;29;19973;-57
2024/03/16 08:14:53;;;;;;;;;;;;;;;22.97;37.81;101719.88;4100560;28;19965;-58
2024/03/16 08:16:55;;;;;;;;;;;;;;;22.97;38.00;101729.78;4100464;28;20416;-57
2024/03/16 08:18:56;;;;;;;;;;;;;;;22.96;37.96;101736.94;4100343;29;19929;-56
2024/03/16 08:20:59;;;;;;;;;;;;;;;22.95;37.65;101729.91;4100362;29;19922;-58
2024/03/16 08:23:01;;;;;;;;;;;;;;;22.95;37.57;101734.38;4100334;29;19929;-58
2024/03/16 08:25:03;;;;;;;;;;;;;;;22.97;37.76;101727.94;4100517;29;20385;-58
2024/03/16 08:27:04;;;;;;;;;;;;;;;22.98;37.61;101739.53;4099978;29;19997;-58
2024/03/16 08:29:07;;;;;;;;;;;;;;;23.00;37.73;101739.44;4100189;29;20286;-60
2024/03/16 08:31:08;;;;;;;;;;;;;;;23.00;37.85;101739.44;4100187;28;19995;-58
2024/03/16 08:33:10;;;;;;;;;;;;;;;23.01;37.56;101741.16;4099966;29;19932;-57
2024/03/16 08:35:12;;;;;;;;;;;;;;;23.03;37.59;101741.91;4100207;29;19922;-58
2024/03/16 08:37:13;;;;;;;;;;;;;;;23.06;37.78;101747.03;4100079;28;19923;-58
2024/03/16 08:39:18;;;;;;;;;;;;;;;23.03;37.69;101747.25;4100149;29;19953;-58
2024/03/16 08:41:20;;;;;;;;;;;;;;;23.03;37.63;101758.84;4100043;29;19931;-58
2024/03/16 08:43:21;;;;;;;;;;;;;;;23.02;37.49;101761.66;4099771;29;19933;-58
2024/03/16 08:45:23;;;;;;;;;;;;;;;23.02;37.53;101764.31;4100055;29;19930;-58
2024/03/16 08:47:25;;;;;;;;;;;;;;;22.98;37.75;101769.06;4100030;29;19930;-58
2024/03/16 08:49:27;;;;;;;;;;;;;;;22.98;37.59;101769.06;4098576;29;19922;-58
2024/03/16 08:51:28;;;;;;;;;;;;;;;22.96;37.58;101771.81;4099597;28;20373;-58
2024/03/16 08:53:31;;;;;;;;;;;;;;;22.97;37.82;101778.06;4099957;29;20447;-58
2024/03/16 08:55:32;;;;;;;;;;;;;;;22.97;37.82;101776.22;4099720;28;19926;-58
2024/03/16 08:57:34;;;;;;;;;;;;;;;23.00;37.48;101780.50;4098641;29;19982;-58
2024/03/16 08:59:37;;;;;;;;;;;;;;;23.04;37.41;101783.84;4084061;29;19927;-58
2024/03/16 09:01:39;;;;;;;;;;;;;;;23.06;37.18;101787.28;4084091;29;20394;-58
2024/03/16 09:03:41;;;;;;;;;;;;;;;23.06;37.33;101793.50;4084132;29;19922;-59
2024/03/16 09:05:42;;;;;;;;;;;;;;;23.08;37.66;101788.03;4083907;29;19930;-58
2024/03/16 09:07:44;;;;;;;;;;;;;;;23.08;37.39;101798.75;4083976;29;19922;-58
2024/03/16 09:09:46;;;;;;;;;;;;;;;23.06;37.29;101793.50;4083663;29;20374;-59
2024/03/16 09:11:47;;;;;;;;;;;;;;;23.07;37.28;101797.03;4083726;29;19966;-58
2024/03/16 09:13:50;;;;;;;;;;;;;;;23.07;37.24;101795.19;4083724;29;19929;-58
2024/03/16 09:15:51;;;;;;;;;;;;;;;23.07;37.28;101800.56;4083511;29;19968;-58
2024/03/16 09:17:53;;;;;;;;;;;;;;;23.07;37.26;101800.56;4083395;29;19923;-58
2024/03/16 09:19:54;;;;;;;;;;;;;;;23.07;37.33;101802.41;4083820;29;19922;-58
2024/03/16 09:21:59;;;;;;;;;;;;;;;23.08;37.08;101799.59;4083768;29;20370;-58
2024/03/16 09:24:01;;;;;;;;;;;;;;;23.08;37.17;101804.97;4082520;29;20501;-58
2024/03/16 09:26:04;;;;;;;;;;;;;;;23.10;37.25;101808.41;4083411;29;20342;-59
2024/03/16 09:28:07;;;;;;;;;;;;;;;23.12;36.94;101809.19;4083543;29;19923;-58
2024/03/16 09:30:11;;;;;;;;;;;;;;;23.13;37.12;101805.50;4083645;29;19929;-58
2024/03/16 09:32:13;;;;;;;;;;;;;;;23.12;37.10;101819.03;4083620;29;20372;-59
2024/03/16 09:34:15;;;;;;;;;;;;;;;23.12;37.14;101814.53;4083575;29;19923;-58
2024/03/16 09:36:17;;;;;;;;;;;;;;;23.11;36.94;101811.94;4083525;29;19927;-58
2024/03/16 09:38:18;;;;;;;;;;;;;;;23.12;37.49;101816.34;4083541;29;19929;-58
2024/03/16 09:40:20;;;;;;;;;;;;;;;23.12;37.21;101814.53;4083239;29;19958;-58
2024/03/16 09:42:22;;;;;;;;;;;;;;;23.13;37.37;101815.38;4083626;29;20400;-58
2024/03/16 09:44:24;;;;;;;;;;;;;;;23.16;37.08;101807.13;4083486;29;19989;-58
2024/03/16 09:46:31;;;;;;;;;;;;;;;23.14;36.84;101812.59;4082268;29;19971;-58
2024/03/16 09:48:31;;;;;;;;;;;;;;;23.15;37.27;101810.78;4082258;29;19982;-58
2024/03/16 09:50:33;;;;;;;;;;;;;;;23.15;36.90;101802.72;4082069;29;19923;-59
2024/03/16 09:52:35;;;;;;;;;;;;;;;23.11;35.99;101806.56;4082452;29;19978;-58
2024/03/16 09:54:37;;;;;;;;;;;;;;;22.95;37.09;101812.19;4087306;28;20279;-55
2024/03/16 09:56:38;;;;;;;;;;;;;;;22.74;37.71;101812.72;4101313;28;20591;-55
2024/03/16 09:58:38;;;;;;;;;;;;;;;22.85;37.44;101819.19;4105080;28;19953;-58
2024/03/16 10:00:39;;;;;;;;;;;;;;;22.93;37.65;101811.41;4102785;28;20424;-57
2024/03/16 10:02:40;;;;;;;;;;;;;;;22.95;37.07;101817.56;4099037;28;19931;-57
2024/03/16 10:04:41;;;;;;;;;;;;;;;22.89;36.76;101818.88;4098761;28;19965;-57
2024/03/16 10:06:41;;;;;;;;;;;;;;;22.95;36.27;101814.88;4097831;29;20312;-56
2024/03/16 10:08:42;;;;;;;;;;;;;;;22.92;35.80;101818.63;4096012;29;19977;-56
2024/03/16 10:10:43;;;;;;;;;;;;;;;22.93;37.03;101822.16;4096147;29;19923;-56
2024/03/16 10:12:44;;;;;;;;;;;;;;;23.00;37.05;101830.66;4082767;29;20445;-59
2024/03/16 10:14:46;;;;;;;;;;;;;;;23.02;36.89;101821.50;4100621;28;20440;-57
2024/03/16 10:16:47;;;;;;;;;;;;;;;23.01;36.72;101824.31;4104593;28;19926;-58
2024/03/16 10:18:52;;;;;;;;;;;;;;;22.99;36.75;101832.47;4097428;29;19930;-57
2024/03/16 10:20:53;;;;;;;;;;;;;;;22.94;36.43;101824.75;4113671;28;19957;-58
2024/03/16 10:22:54;;;;;;;;;;;;;;;22.98;36.17;101828.06;4099213;28;20325;-58
2024/03/16 10:24:58;;;;;;;;;;;;;;;23.00;35.99;101834.16;4097570;29;19922;-58
2024/03/16 10:26:58;;;;;;;;;;;;;;;23.05;35.56;101833.84;4097172;29;19922;-57